Time;durP1;ratioP1;P1;durP2;ratioP2;P2;SDS_P1;SDS_P2;PMS_P1;PMS_P2;Temp;Humidity;BMP_temperature;BMP_pressure;BME280_temperature;BME280_humidity;BME280_pressure;Samples;Min_cycle;Max_cycle;Signal;HPM_P1;HPM_P2
2023/01/10 00:00:24;;;;;;;;;;;;;;;6.88;100.00;97934.97;4225019;33;19947;-77
2023/01/10 00:03:11;;;;;;;;;;;;;;;6.98;100.00;97938.81;4225569;33;19976;-75
2023/01/10 00:05:38;;;;;;;;;;;;;;;6.86;100.00;97942.44;4227418;33;19995;-76
2023/01/10 00:08:05;;;;;;;;;;;;;;;6.99;100.00;97943.06;4230497;33;20146;-76
2023/01/10 00:10:32;;;;;;;;;;;;;;;7.08;100.00;97941.56;4256477;33;19938;-77
2023/01/10 00:15:43;;;;;;;;;;;;;;;6.98;100.00;97939.59;4258331;33;20008;-76
2023/01/10 00:18:10;;;;;;;;;;;;;;;6.91;100.00;97947.84;4277297;33;19949;-76
2023/01/10 00:20:36;;;;;;;;;;;;;;;6.93;100.00;97957.50;4254992;33;20087;-77
2023/01/10 00:23:02;;;;;;;;;;;;;;;6.80;100.00;97953.34;4256319;33;19960;-77
2023/01/10 00:25:28;;;;;;;;;;;;;;;6.75;100.00;97959.44;4256074;33;19997;-75
2023/01/10 00:28:18;;;;;;;;;;;;;;;6.86;100.00;97955.81;4254749;33;20070;-76
2023/01/10 00:30:50;;;;;;;;;;;;;;;6.81;100.00;97958.44;4256974;33;19942;-77
2023/01/10 00:33:19;;;;;;;;;;;;;;;6.77;100.00;97960.00;4256123;33;19954;-75
2023/01/10 00:35:46;;;;;;;;;;;;;;;6.77;100.00;97965.34;4256498;33;19962;-77
2023/01/10 00:38:13;;;;;;;;;;;;;;;6.68;100.00;97956.94;4256427;33;19938;-76
2023/01/10 00:40:39;;;;;;;;;;;;;;;6.67;100.00;97966.03;4256665;33;20380;-76
2023/01/10 00:45:52;;;;;;;;;;;;;;;6.88;100.00;97976.97;4215288;34;19943;-76
2023/01/10 00:48:19;;;;;;;;;;;;;;;6.80;100.00;97974.75;4227962;34;19989;-75
2023/01/10 00:50:45;;;;;;;;;;;;;;;6.76;100.00;97974.41;4230030;33;19956;-75
2023/01/10 00:53:11;;;;;;;;;;;;;;;6.84;100.00;97971.28;4229519;33;20334;-75
2023/01/10 00:55:38;;;;;;;;;;;;;;;6.80;100.00;97978.22;4228434;33;19965;-76
2023/01/10 00:58:04;;;;;;;;;;;;;;;6.72;100.00;97978.69;4232523;33;20006;-76
2023/01/10 03:00:35;;;;;;;;;;;;;;;6.40;100.00;98075.63;4898516;27;19987;-76
2023/01/10 03:03:31;;;;;;;;;;;;;;;6.38;100.00;98083.06;4322039;33;20310;-77
2023/01/10 03:06:17;;;;;;;;;;;;;;;6.38;100.00;98088.41;4326777;33;20029;-77
2023/01/10 03:09:01;;;;;;;;;;;;;;;6.32;100.00;98082.19;4309738;33;19940;-75
2023/01/10 03:11:43;;;;;;;;;;;;;;;6.36;100.00;98087.84;4311919;33;19945;-76
2023/01/10 03:14:23;;;;;;;;;;;;;;;6.39;100.00;98091.91;4311571;33;20266;-76
2023/01/10 03:16:58;;;;;;;;;;;;;;;6.42;100.00;98084.19;4317247;33;19978;-76
2023/01/10 03:19:28;;;;;;;;;;;;;;;6.29;100.00;98087.22;4326587;33;19943;-76
2023/01/10 03:21:56;;;;;;;;;;;;;;;6.30;100.00;98094.16;4326632;33;19958;-76
2023/01/10 03:24:24;;;;;;;;;;;;;;;6.25;100.00;98096.78;4323964;33;19962;-76
2023/01/10 03:26:53;;;;;;;;;;;;;;;6.13;100.00;98105.69;4326526;33;20263;-78
2023/01/10 03:29:40;;;;;;;;;;;;;;;6.18;100.00;98113.00;4319540;33;19986;-78
2023/01/10 03:32:09;;;;;;;;;;;;;;;6.17;100.00;98116.69;4317070;33;19962;-76
2023/01/10 03:34:35;;;;;;;;;;;;;;;6.14;100.00;98118.00;4308851;33;19953;-76
2023/01/10 03:37:07;;;;;;;;;;;;;;;6.17;100.00;98117.53;4309881;33;19955;-76
2023/01/10 03:39:40;;;;;;;;;;;;;;;6.15;100.00;98108.94;4304670;33;19940;-76
2023/01/10 03:42:21;;;;;;;;;;;;;;;6.21;100.00;98114.34;4308875;33;20071;-76
2023/01/10 03:44:49;;;;;;;;;;;;;;;6.23;100.00;98125.63;4308781;33;20371;-77
2023/01/10 03:47:36;;;;;;;;;;;;;;;6.18;100.00;98123.69;4308096;33;19948;-76
2023/01/10 03:50:07;;;;;;;;;;;;;;;6.17;100.00;98128.22;4301183;33;19966;-76
2023/01/10 03:52:34;;;;;;;;;;;;;;;6.14;100.00;98133.22;4308545;33;19945;-76
2023/01/10 03:55:02;;;;;;;;;;;;;;;5.96;100.00;98136.91;4309627;33;19945;-76
2023/01/10 03:57:28;;;;;;;;;;;;;;;6.06;100.00;98147.78;4307764;33;19948;-74
2023/01/10 04:00:01;;;;;;;;;;;;;;;6.10;100.00;98148.94;4309675;33;19956;-76
2023/01/10 04:05:04;;;;;;;;;;;;;;;6.12;100.00;98149.50;4313976;33;19946;-76
2023/01/10 04:07:31;;;;;;;;;;;;;;;6.05;100.00;98161.41;4324057;33;20059;-73
2023/01/10 04:09:57;;;;;;;;;;;;;;;6.04;100.00;98160.59;4326264;33;19962;-76
2023/01/10 04:12:23;;;;;;;;;;;;;;;6.01;100.00;98171.75;4324839;33;19945;-75
2023/01/10 04:14:49;;;;;;;;;;;;;;;6.16;100.00;98174.72;4325350;33;20111;-76
2023/01/10 04:17:16;;;;;;;;;;;;;;;6.10;100.00;98175.66;4325764;33;19956;-76
2023/01/10 04:19:42;;;;;;;;;;;;;;;6.09;100.00;98181.25;4323056;33;19944;-75
2023/01/10 04:22:09;;;;;;;;;;;;;;;6.06;100.00;98179.84;4325841;33;19968;-74
2023/01/10 04:24:35;;;;;;;;;;;;;;;5.97;100.00;98192.03;4324959;33;19979;-76
2023/01/10 04:27:02;;;;;;;;;;;;;;;5.92;100.00;98189.19;4325983;33;19940;-76
2023/01/10 04:29:28;;;;;;;;;;;;;;;6.06;100.00;98195.09;4307067;33;19993;-74
2023/01/10 04:31:54;;;;;;;;;;;;;;;6.03;100.00;98195.56;4320783;33;20268;-76
2023/01/10 04:34:20;;;;;;;;;;;;;;;6.01;100.00;98203.84;4323819;33;19948;-76
2023/01/10 04:36:47;;;;;;;;;;;;;;;5.99;100.00;98197.94;4325422;33;19944;-76
2023/01/10 04:39:14;;;;;;;;;;;;;;;6.04;100.00;98203.34;4326624;33;20487;-76
2023/01/10 04:41:41;;;;;;;;;;;;;;;5.97;100.00;98198.16;4316521;33;19945;-76
2023/01/10 04:44:07;;;;;;;;;;;;;;;5.90;100.00;98212.69;4320662;33;19944;-75
2023/01/10 04:46:33;;;;;;;;;;;;;;;6.05;100.00;98217.50;4326327;33;20812;-76
2023/01/10 04:48:59;;;;;;;;;;;;;;;6.06;100.00;98221.81;4325148;33;20004;-76
2023/01/10 04:51:26;;;;;;;;;;;;;;;5.96;100.00;98225.09;4326107;33;19970;-76
2023/01/10 04:53:53;;;;;;;;;;;;;;;5.93;100.00;98233.59;4311396;33;19944;-76
2023/01/10 04:56:20;;;;;;;;;;;;;;;5.87;100.00;98237.22;4309808;33;19941;-74
2023/01/10 04:58:47;;;;;;;;;;;;;;;5.89;100.00;98237.78;4310652;33;19952;-77
2023/01/10 05:01:15;;;;;;;;;;;;;;;5.91;100.00;98246.38;4304493;33;19953;-77
2023/01/10 05:03:41;;;;;;;;;;;;;;;5.83;100.00;98251.03;4304017;33;19944;-76
2023/01/10 05:06:07;;;;;;;;;;;;;;;5.81;100.00;98247.81;4302398;33;20391;-73
2023/01/10 05:08:33;;;;;;;;;;;;;;;5.78;100.00;98258.97;4303106;33;20384;-75
2023/01/10 05:11:00;;;;;;;;;;;;;;;5.76;100.00;98266.41;4297136;33;19949;-78
2023/01/10 05:13:26;;;;;;;;;;;;;;;5.81;100.00;98263.03;4293550;33;19948;-77
2023/01/10 05:15:53;;;;;;;;;;;;;;;5.74;100.00;98268.47;4273138;33;19949;-77
2023/01/10 05:18:20;;;;;;;;;;;;;;;5.76;100.00;98274.41;4260812;33;19948;-75
2023/01/10 05:20:46;;;;;;;;;;;;;;;5.78;100.00;98279.53;4261229;33;19966;-76
2023/01/10 05:23:14;;;;;;;;;;;;;;;5.80;100.00;98278.22;4261565;33;19946;-75
2023/01/10 05:25:42;;;;;;;;;;;;;;;5.83;100.00;98283.09;4275427;33;19941;-76
2023/01/10 05:28:12;;;;;;;;;;;;;;;5.85;100.00;98279.37;4282204;33;19953;-74
2023/01/10 05:30:41;;;;;;;;;;;;;;;5.75;100.00;98283.47;4257567;33;19972;-76
2023/01/10 05:33:12;;;;;;;;;;;;;;;5.68;100.00;98285.47;4259364;33;19946;-76
2023/01/10 05:35:42;;;;;;;;;;;;;;;5.61;100.00;98284.78;4232830;33;19952;-76
2023/01/10 05:38:10;;;;;;;;;;;;;;;5.68;100.00;98300.69;4210176;34;19971;-76
2023/01/10 05:40:40;;;;;;;;;;;;;;;5.69;100.00;98300.44;4207286;34;19963;-76
2023/01/10 05:43:06;;;;;;;;;;;;;;;5.87;100.00;98306.66;4210149;34;19976;-76
2023/01/10 05:45:33;;;;;;;;;;;;;;;5.86;100.00;98313.09;4210415;34;20162;-76
2023/01/10 05:47:59;;;;;;;;;;;;;;;5.82;100.00;98318.91;4214809;33;19973;-75
2023/01/10 05:50:26;;;;;;;;;;;;;;;5.95;100.00;98325.00;4219875;33;19989;-75
2023/01/10 05:53:04;;;;;;;;;;;;;;;5.97;100.00;98325.63;4225068;34;19980;-76
2023/01/10 05:55:31;;;;;;;;;;;;;;;5.93;100.00;98321.75;4220342;34;19966;-75
2023/01/10 05:58:03;;;;;;;;;;;;;;;5.94;100.00;98334.88;4219752;33;19985;-74
2023/01/10 06:00:35;;;;;;;;;;;;;;;6.07;100.00;98341.06;4221065;33;20016;-75
2023/01/10 06:03:03;;;;;;;;;;;;;;;5.99;100.00;98350.25;4219923;34;19947;-76
2023/01/10 06:05:43;;;;;;;;;;;;;;;5.98;100.00;98348.63;4219466;33;19957;-76
2023/01/10 06:08:13;;;;;;;;;;;;;;;6.00;100.00;98357.22;4243703;33;19963;-76
2023/01/10 06:10:40;;;;;;;;;;;;;;;6.03;100.00;98362.09;4265474;33;20072;-75
2023/01/10 06:13:08;;;;;;;;;;;;;;;5.97;100.00;98368.38;4249028;33;19933;-74
2023/01/10 06:15:37;;;;;;;;;;;;;;;5.92;100.00;98376.25;4274026;33;20047;-75
2023/01/10 06:18:12;;;;;;;;;;;;;;;5.94;100.00;98379.50;4279836;33;19978;-75
2023/01/10 06:20:50;;;;;;;;;;;;;;;5.91;100.00;98379.97;4282816;33;19956;-76
2023/01/10 06:23:16;;;;;;;;;;;;;;;5.94;100.00;98380.31;4284572;33;20072;-77
2023/01/10 06:25:43;;;;;;;;;;;;;;;5.89;100.00;98377.53;4286991;33;20313;-75
2023/01/10 06:28:10;;;;;;;;;;;;;;;5.87;100.00;98394.84;4285587;33;19968;-75
2023/01/10 06:30:37;;;;;;;;;;;;;;;5.80;100.00;98395.78;4280746;33;19981;-77
2023/01/10 06:33:05;;;;;;;;;;;;;;;5.80;100.00;98398.44;4281047;33;20612;-77
2023/01/10 06:35:31;;;;;;;;;;;;;;;5.81;100.00;98402.75;4286842;33;20343;-76
2023/01/10 06:37:57;;;;;;;;;;;;;;;5.85;100.00;98410.31;4286681;33;19942;-74
2023/01/10 06:40:25;;;;;;;;;;;;;;;5.86;100.00;98410.06;4283872;33;19949;-76
2023/01/10 06:42:51;;;;;;;;;;;;;;;5.93;100.00;98409.94;4285597;33;20213;-76
2023/01/10 06:45:18;;;;;;;;;;;;;;;5.93;100.00;98417.97;4317578;33;19980;-77
2023/01/10 06:47:44;;;;;;;;;;;;;;;5.90;100.00;98427.25;4319403;33;19962;-76
2023/01/10 06:50:11;;;;;;;;;;;;;;;5.89;100.00;98438.16;4318785;33;19960;-74
2023/01/10 06:52:37;;;;;;;;;;;;;;;5.80;100.00;98438.53;4305583;33;20004;-76
2023/01/10 06:55:05;;;;;;;;;;;;;;;5.84;100.00;98438.87;4317686;33;19960;-75
2023/01/10 06:57:34;;;;;;;;;;;;;;;5.93;100.00;98447.34;4318596;33;20071;-74
2023/01/10 07:00:05;;;;;;;;;;;;;;;5.97;100.00;98449.34;4311679;33;19971;-75
2023/01/10 07:02:31;;;;;;;;;;;;;;;6.04;100.00;98459.91;4315270;33;19964;-72
2023/01/10 07:04:59;;;;;;;;;;;;;;;6.08;100.00;98466.44;4316622;33;20663;-73
2023/01/10 07:07:39;;;;;;;;;;;;;;;6.05;100.00;98468.75;4316811;33;19956;-73
2023/01/10 07:10:12;;;;;;;;;;;;;;;6.02;100.00;98472.72;4316887;33;19971;-74
2023/01/10 07:12:43;;;;;;;;;;;;;;;5.98;100.00;98466.19;4315871;33;19960;-73
2023/01/10 07:15:11;;;;;;;;;;;;;;;5.88;100.00;98471.28;4300972;33;19945;-73
2023/01/10 07:17:42;;;;;;;;;;;;;;;5.99;100.00;98473.19;4316903;33;19940;-73
2023/01/10 07:20:15;;;;;;;;;;;;;;;5.92;100.00;98469.75;4317380;33;19968;-75
2023/01/10 07:22:41;;;;;;;;;;;;;;;5.86;100.00;98479.53;4316135;33;20209;-74
2023/01/10 07:25:08;;;;;;;;;;;;;;;5.87;100.00;98475.00;4316066;33;19976;-73
2023/01/10 07:27:34;;;;;;;;;;;;;;;5.71;100.00;98485.34;4315048;33;19944;-74
2023/01/10 07:30:00;;;;;;;;;;;;;;;5.78;100.00;98488.72;4316901;33;19948;-74
2023/01/10 07:32:26;;;;;;;;;;;;;;;5.82;100.00;98495.22;4313815;33;19945;-73
2023/01/10 07:34:56;;;;;;;;;;;;;;;5.89;100.00;98499.63;4293263;33;20026;-74
2023/01/10 07:37:29;;;;;;;;;;;;;;;5.78;100.00;98496.72;4291180;33;19952;-73
2023/01/10 07:40:00;;;;;;;;;;;;;;;5.71;100.00;98504.06;4290615;33;20090;-74
2023/01/10 07:42:33;;;;;;;;;;;;;;;5.75;100.00;98505.19;4291049;33;19948;-73
2023/01/10 07:45:07;;;;;;;;;;;;;;;5.84;100.00;98508.34;4294808;33;19963;-73
2023/01/10 07:47:36;;;;;;;;;;;;;;;5.95;100.00;98499.53;4296082;33;20028;-73
2023/01/10 07:50:10;;;;;;;;;;;;;;;5.78;100.00;98520.78;4294961;33;19945;-73
2023/01/10 07:52:38;;;;;;;;;;;;;;;5.49;100.00;98521.63;4293537;33;19963;-73
2023/01/10 07:55:12;;;;;;;;;;;;;;;5.34;100.00;98522.87;4296015;33;19945;-74
2023/01/10 07:57:44;;;;;;;;;;;;;;;5.71;100.00;98522.75;4294927;33;19947;-73
2023/01/10 08:00:18;;;;;;;;;;;;;;;5.62;100.00;98535.59;4264973;33;20072;-73
2023/01/10 08:02:49;;;;;;;;;;;;;;;5.64;100.00;98535.38;4262269;33;20605;-74
2023/01/10 08:05:22;;;;;;;;;;;;;;;5.39;100.00;98541.72;4269617;33;19977;-74
2023/01/10 08:07:54;;;;;;;;;;;;;;;5.46;100.00;98542.41;4280058;33;20056;-74
2023/01/10 08:10:25;;;;;;;;;;;;;;;5.51;100.00;98549.75;4281193;33;19964;-74
2023/01/10 08:13:02;;;;;;;;;;;;;;;5.51;100.00;98554.28;4268723;33;19942;-73
2023/01/10 08:15:35;;;;;;;;;;;;;;;5.46;100.00;98545.09;4267882;33;20060;-74
2023/01/10 08:18:01;;;;;;;;;;;;;;;5.37;100.00;98551.78;4244055;33;20083;-73
2023/01/10 08:20:28;;;;;;;;;;;;;;;5.44;100.00;98552.53;4245628;33;19978;-74
2023/01/10 08:22:57;;;;;;;;;;;;;;;5.49;100.00;98559.84;4252836;33;19956;-73
2023/01/10 08:25:24;;;;;;;;;;;;;;;5.36;100.00;98566.22;4254691;33;19949;-74
2023/01/10 08:27:53;;;;;;;;;;;;;;;5.36;100.00;98568.87;4245298;33;19962;-74
2023/01/10 08:30:20;;;;;;;;;;;;;;;5.32;100.00;98575.69;4238483;33;19987;-73
2023/01/10 08:32:46;;;;;;;;;;;;;;;5.29;100.00;98568.13;4240232;33;20003;-74
2023/01/10 08:35:12;;;;;;;;;;;;;;;5.30;100.00;98572.44;4253330;33;20316;-74
2023/01/10 08:37:45;;;;;;;;;;;;;;;5.35;100.00;98569.91;4252989;33;19946;-73
2023/01/10 08:40:11;;;;;;;;;;;;;;;5.41;100.00;98569.00;4231490;33;19980;-73
2023/01/10 08:42:37;;;;;;;;;;;;;;;5.33;100.00;98572.00;4229576;33;20021;-73
2023/01/10 08:45:04;;;;;;;;;;;;;;;5.32;100.00;98570.34;4219188;33;19964;-73
2023/01/10 08:47:30;;;;;;;;;;;;;;;5.36;100.00;98571.53;4223760;34;19946;-74
2023/01/10 08:49:56;;;;;;;;;;;;;;;5.51;100.00;98578.31;4235593;33;19946;-74
2023/01/10 08:52:23;;;;;;;;;;;;;;;5.49;100.00;98583.06;4234587;33;19946;-73
2023/01/10 08:54:49;;;;;;;;;;;;;;;5.50;100.00;98582.03;4236623;33;20061;-74
2023/01/10 08:57:15;;;;;;;;;;;;;;;5.43;100.00;98566.91;4267582;33;19945;-74
2023/01/10 08:59:42;;;;;;;;;;;;;;;5.37;100.00;98578.50;4251900;33;20349;-74
2023/01/10 09:02:12;;;;;;;;;;;;;;;5.30;100.00;98583.13;4223576;34;19992;-74
2023/01/10 09:04:41;;;;;;;;;;;;;;;5.34;100.00;98584.28;4219585;33;19938;-74
2023/01/10 09:07:07;;;;;;;;;;;;;;;5.34;100.00;98584.28;4208630;34;20457;-73
2023/01/10 09:09:35;;;;;;;;;;;;;;;5.37;100.00;98581.16;4201960;34;19984;-73
2023/01/10 09:12:53;;;;;;;;;;;;;;;5.57;100.00;98588.09;4205536;34;19939;-74
2023/01/10 09:14:49;;;;;;;;;;;;;;;5.57;100.00;98588.09;4208771;34;20085;-72
2023/01/10 09:17:15;;;;;;;;;;;;;;;5.66;100.00;98592.06;4210286;34;19968;-75
2023/01/10 09:19:41;;;;;;;;;;;;;;;5.63;100.00;98587.16;4227620;33;19980;-74
2023/01/10 09:24:42;;;;;;;;;;;;;;;5.85;100.00;98594.66;4233273;33;19958;-75
2023/01/10 09:27:10;;;;;;;;;;;;;;;5.74;100.00;98594.38;4239394;33;19989;-75
2023/01/10 09:29:36;;;;;;;;;;;;;;;5.80;100.00;98606.84;4252902;33;20343;-74
2023/01/10 09:32:02;;;;;;;;;;;;;;;5.82;100.00;98602.09;4239650;33;19972;-75
2023/01/10 09:34:29;;;;;;;;;;;;;;;5.74;100.00;98605.06;4279922;33;20003;-75
2023/01/10 09:36:55;;;;;;;;;;;;;;;5.81;100.00;98613.81;4280498;33;19945;-75
2023/01/10 09:39:21;;;;;;;;;;;;;;;5.59;100.00;98615.38;4277620;33;19946;-74
2023/01/10 09:41:50;;;;;;;;;;;;;;;5.69;100.00;98607.63;4280983;33;20399;-74
2023/01/10 09:44:20;;;;;;;;;;;;;;;5.75;100.00;98608.59;4297634;33;20299;-74
2023/01/10 09:46:54;;;;;;;;;;;;;;;5.72;100.00;98607.16;4294243;33;19953;-75
2023/01/10 09:49:40;;;;;;;;;;;;;;;5.63;100.00;98612.03;4259567;33;19949;-75
2023/01/10 09:52:13;;;;;;;;;;;;;;;5.75;100.00;98612.06;4286980;33;19945;-75
2023/01/10 09:54:41;;;;;;;;;;;;;;;6.00;100.00;98613.78;4291223;33;19971;-76
2023/01/10 09:57:12;;;;;;;;;;;;;;;6.05;100.00;98608.56;4292582;33;19962;-74
2023/01/10 09:59:40;;;;;;;;;;;;;;;6.04;100.00;98609.59;4288918;33;19963;-75
2023/01/10 10:02:15;;;;;;;;;;;;;;;5.93;100.00;98613.03;4259745;33;19945;-76
2023/01/10 10:04:45;;;;;;;;;;;;;;;5.95;100.00;98616.28;4253727;33;19952;-76
2023/01/10 10:07:12;;;;;;;;;;;;;;;6.11;100.00;98617.50;4253212;33;20062;-76
2023/01/10 10:09:39;;;;;;;;;;;;;;;6.13;100.00;98610.88;4251458;33;19962;-77
2023/01/10 10:12:14;;;;;;;;;;;;;;;6.26;100.00;98606.37;4262092;33;20337;-75
2023/01/10 10:14:53;;;;;;;;;;;;;;;6.14;100.00;98620.53;4265201;33;20355;-76
2023/01/10 10:17:29;;;;;;;;;;;;;;;6.16;100.00;98607.75;4264708;33;20095;-73
2023/01/10 10:20:02;;;;;;;;;;;;;;;6.16;100.00;98618.44;4274514;33;20096;-75
2023/01/10 10:22:46;;;;;;;;;;;;;;;6.25;100.00;98621.56;4295535;33;19963;-74
2023/01/10 10:25:30;;;;;;;;;;;;;;;6.31;100.00;98625.19;4293455;33;19959;-75
2023/01/10 10:28:21;;;;;;;;;;;;;;;6.31;100.00;98635.91;4294856;33;19988;-74
2023/01/10 10:30:55;;;;;;;;;;;;;;;6.45;100.00;98631.94;4293236;33;20023;-76
2023/01/10 10:33:24;;;;;;;;;;;;;;;6.39;100.00;98632.88;4262440;33;20009;-76
2023/01/10 10:36:08;;;;;;;;;;;;;;;6.28;100.00;98637.16;4278397;33;19959;-78
2023/01/10 10:38:38;;;;;;;;;;;;;;;6.68;100.00;98646.34;4276096;33;19959;-76
2023/01/10 10:43:53;;;;;;;;;;;;;;;6.68;100.00;98651.72;4272890;33;19961;-75
2023/01/10 10:46:21;;;;;;;;;;;;;;;6.64;100.00;98661.25;4255751;33;19956;-76
2023/01/10 10:48:56;;;;;;;;;;;;;;;6.61;100.00;98661.72;4264922;33;19965;-77
2023/01/10 10:51:29;;;;;;;;;;;;;;;6.66;100.00;98665.31;4252194;33;19950;-76
2023/01/10 10:53:55;;;;;;;;;;;;;;;6.75;100.00;98665.78;4250355;33;19956;-75
2023/01/10 10:56:24;;;;;;;;;;;;;;;6.59;100.00;98663.81;4250730;33;19961;-76
2023/01/10 10:58:54;;;;;;;;;;;;;;;6.73;100.00;98670.53;4247170;33;19942;-75
2023/01/10 11:01:22;;;;;;;;;;;;;;;6.78;100.00;98678.72;4245410;33;19954;-77
2023/01/10 11:03:52;;;;;;;;;;;;;;;6.80;100.00;98673.94;4255287;33;19942;-76
2023/01/10 11:06:20;;;;;;;;;;;;;;;6.48;100.00;98668.94;4264004;33;19949;-76
2023/01/10 11:08:47;;;;;;;;;;;;;;;6.62;100.00;98668.69;4266101;33;19953;-76
2023/01/10 11:11:18;;;;;;;;;;;;;;;6.79;100.00;98674.97;4254319;33;20061;-76
2023/01/10 11:14:04;;;;;;;;;;;;;;;6.78;100.00;98668.00;4264276;33;19948;-75
2023/01/10 11:16:40;;;;;;;;;;;;;;;6.71;100.00;98678.00;4267071;33;20290;-74
2023/01/10 11:19:17;;;;;;;;;;;;;;;7.00;100.00;98686.12;4293279;33;19971;-75
2023/01/10 11:21:46;;;;;;;;;;;;;;;7.03;100.00;98686.47;4296215;33;19992;-75
2023/01/10 11:24:20;;;;;;;;;;;;;;;7.08;100.00;98683.09;4309478;33;19963;-75
2023/01/10 11:26:47;;;;;;;;;;;;;;;6.93;100.00;98694.28;4319936;33;19996;-75
2023/01/10 11:29:18;;;;;;;;;;;;;;;6.97;100.00;98699.97;4320278;33;19958;-75
2023/01/10 11:31:45;;;;;;;;;;;;;;;6.88;100.00;98700.34;4319963;33;19948;-75
2023/01/10 11:34:20;;;;;;;;;;;;;;;6.88;100.00;98705.69;4307046;33;19961;-75
2023/01/10 11:36:57;;;;;;;;;;;;;;;6.83;100.00;98697.56;4276922;33;19971;-74
2023/01/10 11:39:24;;;;;;;;;;;;;;;6.85;100.00;98706.16;4276098;33;19955;-74
2023/01/10 11:41:52;;;;;;;;;;;;;;;6.96;100.00;98714.44;4276180;33;19955;-74
2023/01/10 11:44:23;;;;;;;;;;;;;;;6.71;100.00;98715.47;4276737;33;20035;-77
2023/01/10 11:46:52;;;;;;;;;;;;;;;6.79;100.00;98715.09;4276261;33;20072;-75
2023/01/10 11:49:25;;;;;;;;;;;;;;;6.64;100.00;98714.78;4275884;33;20363;-75
2023/01/10 11:51:55;;;;;;;;;;;;;;;6.79;100.00;98728.50;4261193;33;19959;-75
2023/01/10 11:54:23;;;;;;;;;;;;;;;6.61;100.00;98726.75;4261191;33;19945;-76
2023/01/10 11:57:06;;;;;;;;;;;;;;;6.49;100.00;98734.75;4246729;33;19971;-76
2023/01/10 11:59:32;;;;;;;;;;;;;;;6.52;100.00;98736.13;4215524;33;20017;-76
2023/01/10 12:01:58;;;;;;;;;;;;;;;6.75;100.00;98743.41;4347007;28;19947;-77
2023/01/10 12:04:26;;;;;;;;;;;;;;;6.82;100.00;98736.06;4207717;34;20017;-75
2023/01/10 12:06:54;;;;;;;;;;;;;;;6.62;100.00;98733.72;4216748;33;19951;-76
2023/01/10 12:09:32;;;;;;;;;;;;;;;6.61;100.00;98731.28;4246222;33;20311;-75
2023/01/10 12:12:02;;;;;;;;;;;;;;;6.68;100.00;98742.69;4245026;33;19976;-74
2023/01/10 12:14:29;;;;;;;;;;;;;;;6.52;100.00;98739.62;4241465;33;20062;-75
2023/01/10 12:16:59;;;;;;;;;;;;;;;6.50;100.00;98744.41;4234651;33;20002;-75
2023/01/10 12:19:27;;;;;;;;;;;;;;;6.53;100.00;98740.47;4235412;33;19943;-75
2023/01/10 12:21:54;;;;;;;;;;;;;;;6.52;100.00;98747.66;4207093;34;19951;-75
2023/01/10 12:24:23;;;;;;;;;;;;;;;6.63;100.00;98750.59;4220267;33;19960;-74
2023/01/10 12:26:52;;;;;;;;;;;;;;;6.58;100.00;98755.81;4217818;34;19947;-74
2023/01/10 13:54:54;;;;;;;;;;;;;;;6.08;100.00;98878.06;4865813;28;20226;-74
2023/01/10 13:57:39;;;;;;;;;;;;;;;6.27;100.00;98886.06;4296453;33;19959;-76
2023/01/10 14:03:06;;;;;;;;;;;;;;;6.37;100.00;98887.16;4272269;33;20307;-75
2023/01/10 14:05:32;;;;;;;;;;;;;;;6.39;100.00;98894.16;4275087;33;20060;-76
2023/01/10 14:07:59;;;;;;;;;;;;;;;6.21;100.00;98897.63;4271993;33;19948;-74
2023/01/10 14:10:30;;;;;;;;;;;;;;;6.29;100.00;98894.69;4273409;33;19955;-75
2023/01/10 14:13:10;;;;;;;;;;;;;;;6.35;100.00;98899.09;4271256;33;19984;-74
2023/01/10 14:15:38;;;;;;;;;;;;;;;6.21;100.00;98897.63;4270065;33;20368;-74
2023/01/10 14:18:05;;;;;;;;;;;;;;;6.29;100.00;98900.03;4271340;33;19968;-74
2023/01/10 14:20:33;;;;;;;;;;;;;;;6.38;100.00;98904.00;4271866;33;19958;-75
2023/01/10 14:23:17;;;;;;;;;;;;;;;6.50;100.00;98906.75;4270928;33;19941;-76
2023/01/10 14:25:44;;;;;;;;;;;;;;;6.58;100.00;98908.31;4269266;33;20004;-76
2023/01/10 14:28:22;;;;;;;;;;;;;;;6.35;100.00;98901.78;4271374;33;20429;-74
2023/01/10 14:31:11;;;;;;;;;;;;;;;6.41;100.00;98914.25;4272422;33;20401;-75
2023/01/10 14:33:40;;;;;;;;;;;;;;;6.38;100.00;98914.72;4268308;33;19946;-75
2023/01/10 14:36:13;;;;;;;;;;;;;;;6.40;100.00;98912.66;4281357;33;19937;-74
2023/01/10 14:38:39;;;;;;;;;;;;;;;6.36;100.00;98911.44;4297949;33;19983;-76
2023/01/10 14:41:11;;;;;;;;;;;;;;;6.18;100.00;98920.31;4291267;33;19952;-76
2023/01/10 14:43:41;;;;;;;;;;;;;;;6.32;100.00;98927.13;4294132;33;19959;-76
2023/01/10 14:46:20;;;;;;;;;;;;;;;6.23;100.00;98931.16;4297461;33;20049;-76
2023/01/10 14:48:48;;;;;;;;;;;;;;;6.26;100.00;98922.69;4291513;33;19941;-77
2023/01/10 14:51:19;;;;;;;;;;;;;;;6.31;100.00;98924.69;4293767;33;19953;-76
2023/01/10 14:53:47;;;;;;;;;;;;;;;6.08;100.00;98914.66;4286667;33;19945;-75
2023/01/10 14:56:20;;;;;;;;;;;;;;;6.00;100.00;98918.47;4289436;33;19953;-76
2023/01/10 14:58:47;;;;;;;;;;;;;;;6.06;100.00;98922.09;4285937;33;20130;-75
2023/01/10 15:01:18;;;;;;;;;;;;;;;6.11;100.00;98936.44;4290573;33;20056;-76
2023/01/10 15:03:52;;;;;;;;;;;;;;;6.02;100.00;98929.75;4284652;33;19967;-76
2023/01/10 15:06:18;;;;;;;;;;;;;;;6.00;100.00;98926.47;4281624;33;19999;-75
2023/01/10 15:08:44;;;;;;;;;;;;;;;6.22;100.00;98942.06;4278930;33;20941;-76
2023/01/10 15:11:17;;;;;;;;;;;;;;;6.13;100.00;98945.03;4278695;33;20000;-76
2023/01/10 15:13:53;;;;;;;;;;;;;;;5.99;100.00;98959.59;4278213;33;19949;-75
2023/01/10 15:16:21;;;;;;;;;;;;;;;5.97;100.00;98961.66;4267241;33;19979;-75
2023/01/10 15:18:48;;;;;;;;;;;;;;;6.04;100.00;98954.38;4268430;33;20198;-75
2023/01/10 15:21:15;;;;;;;;;;;;;;;6.11;100.00;98968.50;4267733;33;20015;-75
2023/01/10 15:23:43;;;;;;;;;;;;;;;6.16;100.00;98955.28;4239135;33;20382;-76
2023/01/10 15:26:20;;;;;;;;;;;;;;;6.00;100.00;98966.56;4235342;33;19934;-74
2023/01/10 15:29:04;;;;;;;;;;;;;;;5.98;100.00;98973.97;4241694;33;19958;-76
2023/01/10 15:31:38;;;;;;;;;;;;;;;6.05;100.00;98972.06;4243502;33;19960;-75
2023/01/10 15:34:14;;;;;;;;;;;;;;;6.00;100.00;98975.41;4241292;33;19949;-76
2023/01/10 15:36:44;;;;;;;;;;;;;;;5.91;100.00;98978.56;4240756;33;19962;-74
2023/01/10 15:39:18;;;;;;;;;;;;;;;6.00;100.00;98986.09;4239942;33;19982;-76
2023/01/10 15:41:44;;;;;;;;;;;;;;;5.97;100.00;98988.41;4236961;33;19960;-76
2023/01/10 15:44:20;;;;;;;;;;;;;;;5.98;100.00;98984.66;4241646;33;20125;-76
2023/01/10 15:46:54;;;;;;;;;;;;;;;6.00;100.00;98995.97;4265345;33;19945;-76
2023/01/10 15:49:22;;;;;;;;;;;;;;;5.98;100.00;99006.03;4241150;33;19949;-75
2023/01/10 15:51:48;;;;;;;;;;;;;;;5.96;100.00;99003.59;4243396;33;19997;-76
2023/01/10 15:54:17;;;;;;;;;;;;;;;5.96;100.00;99006.28;4247614;33;19971;-75
2023/01/10 15:56:55;;;;;;;;;;;;;;;6.04;100.00;99002.50;4243268;33;19953;-75
2023/01/10 15:59:31;;;;;;;;;;;;;;;6.12;100.00;98991.50;4238339;33;20003;-75
2023/01/10 16:02:03;;;;;;;;;;;;;;;6.04;100.00;98999.81;4251905;33;20359;-76
2023/01/10 16:04:33;;;;;;;;;;;;;;;6.01;100.00;99000.25;4244510;33;20360;-75
2023/01/10 16:07:15;;;;;;;;;;;;;;;6.07;100.00;98999.38;4234329;33;20323;-74
2023/01/10 16:09:47;;;;;;;;;;;;;;;6.12;100.00;98996.84;4233765;33;19957;-77
2023/01/10 16:15:20;;;;;;;;;;;;;;;6.21;100.00;99015.28;4227305;33;19958;-76
2023/01/10 16:17:47;;;;;;;;;;;;;;;6.06;100.00;99016.44;4186229;34;20282;-76
2023/01/10 16:20:15;;;;;;;;;;;;;;;5.93;100.00;99025.37;4191420;34;19951;-75
2023/01/10 16:22:42;;;;;;;;;;;;;;;5.96;100.00;99016.13;4208774;34;20024;-76
2023/01/10 16:25:13;;;;;;;;;;;;;;;6.00;100.00;99020.03;4205788;34;20002;-75
2023/01/10 16:27:39;;;;;;;;;;;;;;;6.25;100.00;99016.47;4207249;34;20368;-76
2023/01/10 16:30:05;;;;;;;;;;;;;;;6.14;100.00;99016.19;4206671;34;20053;-74
2023/01/10 16:32:31;;;;;;;;;;;;;;;6.15;100.00;99020.47;4208857;34;19967;-75
2023/01/10 16:35:01;;;;;;;;;;;;;;;6.08;100.00;99017.06;4212338;34;19959;-74
2023/01/10 16:37:27;;;;;;;;;;;;;;;6.06;100.00;99016.44;4229727;33;19969;-76
2023/01/10 16:39:55;;;;;;;;;;;;;;;5.97;100.00;99013.25;4252017;33;19946;-76
2023/01/10 16:45:06;;;;;;;;;;;;;;;5.95;100.00;99017.16;4237742;33;20013;-77
2023/01/10 16:47:39;;;;;;;;;;;;;;;6.09;100.00;99013.34;4236601;33;20117;-75
2023/01/10 16:50:05;;;;;;;;;;;;;;;6.08;100.00;99021.56;4247761;33;20403;-76